Aviation Digital Data Service (ADDS)

Output produced by METARs form (1455 UTC 19 January 2019)
found at http://www.aviationweather.gov/metar/data/
 
METAR text: YBRM 191430Z AUTO 05003KT 9999 // NCD 26/22 Q1010 RF00.0/000.0
Conditions at: YBRM (BROOME AIRPORT , AU) observed 1430 UTC 19 January 2019
Temperature: 26.0°C (79°F)
Dewpoint: 22.0°C (72°F) [RH = 79%]
Pressure (altimeter): 29.82 inches Hg (1010.0 mb)
Winds: from the NE (50 degrees) at 3 MPH (3 knots; 1.5 m/s)
Visibility: 6 or more miles (10+ km)
Ceiling: at least 12,000 feet AGL
Clouds: sky clear below 12,000 feet AGL
Weather: no significant weather observed at this time

METAR text: YBRM 191400Z AUTO 03004KT 9999 // SCT105 26/22 Q1010 RF00.0/000.0
Conditions at: YBRM (BROOME AIRPORT , AU) observed 1400 UTC 19 January 2019
Temperature: 26.0°C (79°F)
Dewpoint: 22.0°C (72°F) [RH = 79%]
Pressure (altimeter): 29.82 inches Hg (1010.0 mb)
Winds: from the NNE (30 degrees) at 5 MPH (4 knots; 2.1 m/s)
Visibility: 6 or more miles (10+ km)
Ceiling: at least 12,000 feet AGL
Clouds: scattered clouds at 10500 feet AGL
Weather: no significant weather observed at this time

METAR text: YBRM 191330Z AUTO 02006KT 9999 // NCD 26/22 Q1010 RF00.0/000.0
Conditions at: YBRM (BROOME AIRPORT , AU) observed 1330 UTC 19 January 2019
Temperature: 26.0°C (79°F)
Dewpoint: 22.0°C (72°F) [RH = 79%]
Pressure (altimeter): 29.82 inches Hg (1010.0 mb)
Winds: from the NNE (20 degrees) at 7 MPH (6 knots; 3.1 m/s)
Visibility: 6 or more miles (10+ km)
Ceiling: at least 12,000 feet AGL
Clouds: sky clear below 12,000 feet AGL
Weather: no significant weather observed at this time

METAR text: YBRM 191300Z AUTO 02009KT 9999 // NCD 27/23 Q1009 RF00.0/000.0
Conditions at: YBRM (BROOME AIRPORT , AU) observed 1300 UTC 19 January 2019
Temperature: 27.0°C (81°F)
Dewpoint: 23.0°C (73°F) [RH = 79%]
Pressure (altimeter): 29.79 inches Hg (1009.0 mb)
Winds: from the NNE (20 degrees) at 10 MPH (9 knots; 4.6 m/s)
Visibility: 6 or more miles (10+ km)
Ceiling: at least 12,000 feet AGL
Clouds: sky clear below 12,000 feet AGL
Weather: no significant weather observed at this time

METAR text: YBRM 191230Z AUTO 02015G25KT 9999 // SCT021 SCT082 SCT120 28/22 Q1009
Conditions at: YBRM (BROOME AIRPORT , AU) observed 1230 UTC 19 January 2019
Temperature: 28.0°C (82°F)
Dewpoint: 22.0°C (72°F) [RH = 70%]
Pressure (altimeter): 29.79 inches Hg (1009.0 mb)
Winds: from the NNE (20 degrees) at 17 MPH (15 knots; 7.7 m/s)
gusting to 29 MPH (25 knots; 12.9 m/s)
Visibility: 6 or more miles (10+ km)
Ceiling: at least 12,000 feet AGL
Clouds: scattered clouds at 2100 feet AGL
scattered clouds at 8200 feet AGL
scattered clouds at 12000 feet AGL
Weather: no significant weather observed at this time

METAR text: YBRM 191200Z AUTO 03016G31KT 9999 // SCT014 SCT098 29/25 Q1009
Conditions at: YBRM (BROOME AIRPORT , AU) observed 1200 UTC 19 January 2019
Temperature: 29.0°C (84°F)
Dewpoint: 25.0°C (77°F) [RH = 79%]
Pressure (altimeter): 29.79 inches Hg (1009.0 mb)
Winds: from the NNE (30 degrees) at 18 MPH (16 knots; 8.2 m/s)
gusting to 36 MPH (31 knots; 15.9 m/s)
Visibility: 6 or more miles (10+ km)
Ceiling: at least 12,000 feet AGL
Clouds: scattered clouds at 1400 feet AGL
scattered clouds at 9800 feet AGL
Weather: no significant weather observed at this time

METAR text: YBRM 191130Z AUTO 31007KT 9999 // NCD 31/27 Q1007 RF00.0/000.0
Conditions at: YBRM (BROOME AIRPORT , AU) observed 1130 UTC 19 January 2019
Temperature: 31.0°C (88°F)
Dewpoint: 27.0°C (81°F) [RH = 79%]
Pressure (altimeter): 29.73 inches Hg (1007.0 mb)
Winds: from the NW (310 degrees) at 8 MPH (7 knots; 3.6 m/s)
Visibility: 6 or more miles (10+ km)
Ceiling: at least 12,000 feet AGL
Clouds: sky clear below 12,000 feet AGL
Weather: no significant weather observed at this time

METAR text: YBRM 191100Z AUTO 27009KT 9999 -SHRA SCT055 SCT079 30/27 Q1006
Conditions at: YBRM (BROOME AIRPORT , AU) observed 1100 UTC 19 January 2019
Temperature: 30.0°C (86°F)
Dewpoint: 27.0°C (81°F) [RH = 84%]
Pressure (altimeter): 29.70 inches Hg (1006.0 mb)
Winds: from the W (270 degrees) at 10 MPH (9 knots; 4.6 m/s)
Visibility: 6 or more miles (10+ km)
Ceiling: at least 12,000 feet AGL
Clouds: scattered clouds at 5500 feet AGL
scattered clouds at 7900 feet AGL
Weather: -SHRA  (light rain showers)

METAR text: YBRM 191030Z AUTO 27010KT 9999 // SCT096 31/27 Q1006 RF00.0/000.0
Conditions at: YBRM (BROOME AIRPORT , AU) observed 1030 UTC 19 January 2019
Temperature: 31.0°C (88°F)
Dewpoint: 27.0°C (81°F) [RH = 79%]
Pressure (altimeter): 29.70 inches Hg (1006.0 mb)
Winds: from the W (270 degrees) at 12 MPH (10 knots; 5.1 m/s)
Visibility: 6 or more miles (10+ km)
Ceiling: at least 12,000 feet AGL
Clouds: scattered clouds at 9600 feet AGL
Weather: no significant weather observed at this time

METAR text: YBRM 191000Z AUTO 24010KT 9999 // SCT094 31/26 Q1006 RF00.0/000.0
Conditions at: YBRM (BROOME AIRPORT , AU) observed 1000 UTC 19 January 2019
Temperature: 31.0°C (88°F)
Dewpoint: 26.0°C (79°F) [RH = 75%]
Pressure (altimeter): 29.70 inches Hg (1006.0 mb)
Winds: from the WSW (240 degrees) at 12 MPH (10 knots; 5.1 m/s)
Visibility: 6 or more miles (10+ km)
Ceiling: at least 12,000 feet AGL
Clouds: scattered clouds at 9400 feet AGL
Weather: no significant weather observed at this time

METAR text: YBRM 190930Z AUTO 28009KT 9999 // NCD 31/25 Q1005 RF00.0/000.0
Conditions at: YBRM (BROOME AIRPORT , AU) observed 0930 UTC 19 January 2019
Temperature: 31.0°C (88°F)
Dewpoint: 25.0°C (77°F) [RH = 71%]
Pressure (altimeter): 29.68 inches Hg (1005.0 mb)
Winds: from the W (280 degrees) at 10 MPH (9 knots; 4.6 m/s)
Visibility: 6 or more miles (10+ km)
Ceiling: at least 12,000 feet AGL
Clouds: sky clear below 12,000 feet AGL
Weather: no significant weather observed at this time

METAR text: YBRM 190900Z AUTO 28008KT 9999 // SCT017 SCT120 30/23 Q1005
Conditions at: YBRM (BROOME AIRPORT , AU) observed 0900 UTC 19 January 2019
Temperature: 30.0°C (86°F)
Dewpoint: 23.0°C (73°F) [RH = 66%]
Pressure (altimeter): 29.68 inches Hg (1005.0 mb)
Winds: from the W (280 degrees) at 9 MPH (8 knots; 4.1 m/s)
Visibility: 6 or more miles (10+ km)
Ceiling: at least 12,000 feet AGL
Clouds: scattered clouds at 1700 feet AGL
scattered clouds at 12000 feet AGL
Weather: no significant weather observed at this time

METAR text: YBRM 190830Z AUTO 03015KT 340V040 9999 // SCT017 BKN120 29/23 Q1006
Conditions at: YBRM (BROOME AIRPORT , AU) observed 0830 UTC 19 January 2019
Temperature: 29.0°C (84°F)
Dewpoint: 23.0°C (73°F) [RH = 70%]
Pressure (altimeter): 29.70 inches Hg (1006.0 mb)
Winds: from the NNE (30 degrees) at 17 MPH (15 knots; 7.7 m/s)
Visibility: 6 or more miles (10+ km)
Ceiling: 12000 feet AGL
Clouds: scattered clouds at 1700 feet AGL
broken clouds at 12000 feet AGL
Weather: no significant weather observed at this time

METAR text: YBRM 190800Z AUTO 32010KT 9999 // SCT120 31/26 Q1005 RF00.0/000.0
Conditions at: YBRM (BROOME AIRPORT , AU) observed 0800 UTC 19 January 2019
Temperature: 31.0°C (88°F)
Dewpoint: 26.0°C (79°F) [RH = 75%]
Pressure (altimeter): 29.68 inches Hg (1005.0 mb)
Winds: from the NW (320 degrees) at 12 MPH (10 knots; 5.1 m/s)
Visibility: 6 or more miles (10+ km)
Ceiling: at least 12,000 feet AGL
Clouds: scattered clouds at 12000 feet AGL
Weather: no significant weather observed at this time

METAR text: YBRM 190730Z AUTO 31010KT 9999 // NCD 30/24 Q1004 RF00.0/000.0
Conditions at: YBRM (BROOME AIRPORT , AU) observed 0730 UTC 19 January 2019
Temperature: 30.0°C (86°F)
Dewpoint: 24.0°C (75°F) [RH = 70%]
Pressure (altimeter): 29.65 inches Hg (1004.0 mb)
Winds: from the NW (310 degrees) at 12 MPH (10 knots; 5.1 m/s)
Visibility: 6 or more miles (10+ km)
Ceiling: at least 12,000 feet AGL
Clouds: sky clear below 12,000 feet AGL
Weather: no significant weather observed at this time

METAR text: YBRM 190700Z AUTO 34012KT 9999 // SCT018 30/24 Q1006
Conditions at: YBRM (BROOME AIRPORT , AU) observed 0700 UTC 19 January 2019
Temperature: 30.0°C (86°F)
Dewpoint: 24.0°C (75°F) [RH = 70%]
Pressure (altimeter): 29.70 inches Hg (1006.0 mb)
Winds: from the NNW (340 degrees) at 14 MPH (12 knots; 6.2 m/s)
Visibility: 6 or more miles (10+ km)
Ceiling: at least 12,000 feet AGL
Clouds: scattered clouds at 1800 feet AGL
Weather: no significant weather observed at this time

METAR text: YBRM 190630Z AUTO 30012KT 9999 // NCD 31/27 Q1006 RF00.0/000.0
Conditions at: YBRM (BROOME AIRPORT , AU) observed 0630 UTC 19 January 2019
Temperature: 31.0°C (88°F)
Dewpoint: 27.0°C (81°F) [RH = 79%]
Pressure (altimeter): 29.70 inches Hg (1006.0 mb)
Winds: from the WNW (300 degrees) at 14 MPH (12 knots; 6.2 m/s)
Visibility: 6 or more miles (10+ km)
Ceiling: at least 12,000 feet AGL
Clouds: sky clear below 12,000 feet AGL
Weather: no significant weather observed at this time

METAR text: YBRM 190600Z AUTO 28014KT 9999 // NCD 32/27 Q1006 RF00.0/000.0
Conditions at: YBRM (BROOME AIRPORT , AU) observed 0600 UTC 19 January 2019
Temperature: 32.0°C (90°F)
Dewpoint: 27.0°C (81°F) [RH = 75%]
Pressure (altimeter): 29.70 inches Hg (1006.0 mb)
Winds: from the W (280 degrees) at 16 MPH (14 knots; 7.2 m/s)
Visibility: 6 or more miles (10+ km)
Ceiling: at least 12,000 feet AGL
Clouds: sky clear below 12,000 feet AGL
Weather: no significant weather observed at this time

METAR text: YBRM 190530Z AUTO 27013KT 9999 // NCD 32/27 Q1006 RF00.0/000.0
Conditions at: YBRM (BROOME AIRPORT , AU) observed 0530 UTC 19 January 2019
Temperature: 32.0°C (90°F)
Dewpoint: 27.0°C (81°F) [RH = 75%]
Pressure (altimeter): 29.70 inches Hg (1006.0 mb)
Winds: from the W (270 degrees) at 15 MPH (13 knots; 6.7 m/s)
Visibility: 6 or more miles (10+ km)
Ceiling: at least 12,000 feet AGL
Clouds: sky clear below 12,000 feet AGL
Weather: no significant weather observed at this time

METAR text: YBRM 190500Z AUTO 27013KT 9999 // NCD 35/27 Q1006 RF00.0/000.0
Conditions at: YBRM (BROOME AIRPORT , AU) observed 0500 UTC 19 January 2019
Temperature: 35.0°C (95°F)
Dewpoint: 27.0°C (81°F) [RH = 63%]
Pressure (altimeter): 29.70 inches Hg (1006.0 mb)
Winds: from the W (270 degrees) at 15 MPH (13 knots; 6.7 m/s)
Visibility: 6 or more miles (10+ km)
Ceiling: at least 12,000 feet AGL
Clouds: sky clear below 12,000 feet AGL
Weather: no significant weather observed at this time

METAR text: YBRM 190430Z AUTO 27012KT 9999 // NCD 33/26 Q1007 RF00.0/000.0
Conditions at: YBRM (BROOME AIRPORT , AU) observed 0430 UTC 19 January 2019
Temperature: 33.0°C (91°F)
Dewpoint: 26.0°C (79°F) [RH = 67%]
Pressure (altimeter): 29.73 inches Hg (1007.0 mb)
Winds: from the W (270 degrees) at 14 MPH (12 knots; 6.2 m/s)
Visibility: 6 or more miles (10+ km)
Ceiling: at least 12,000 feet AGL
Clouds: sky clear below 12,000 feet AGL
Weather: no significant weather observed at this time

METAR text: YBRM 190400Z AUTO 27009KT 9999 // NCD 34/26 Q1007 RF00.0/000.0
Conditions at: YBRM (BROOME AIRPORT , AU) observed 0400 UTC 19 January 2019
Temperature: 34.0°C (93°F)
Dewpoint: 26.0°C (79°F) [RH = 63%]
Pressure (altimeter): 29.73 inches Hg (1007.0 mb)
Winds: from the W (270 degrees) at 10 MPH (9 knots; 4.6 m/s)
Visibility: 6 or more miles (10+ km)
Ceiling: at least 12,000 feet AGL
Clouds: sky clear below 12,000 feet AGL
Weather: no significant weather observed at this time

METAR text: YBRM 190330Z AUTO 22007KT 180V250 9999 // NCD 34/26 Q1008 RF00.0/000.0
Conditions at: YBRM (BROOME AIRPORT , AU) observed 0330 UTC 19 January 2019
Temperature: 34.0°C (93°F)
Dewpoint: 26.0°C (79°F) [RH = 63%]
Pressure (altimeter): 29.76 inches Hg (1008.0 mb)
Winds: from the SW (220 degrees) at 8 MPH (7 knots; 3.6 m/s)
Visibility: 6 or more miles (10+ km)
Ceiling: at least 12,000 feet AGL
Clouds: sky clear below 12,000 feet AGL
Weather: no significant weather observed at this time

METAR text: YBRM 190300Z AUTO 18008KT 9999 // NCD 33/25 Q1008
Conditions at: YBRM (BROOME AIRPORT , AU) observed 0300 UTC 19 January 2019
Temperature: 33.0°C (91°F)
Dewpoint: 25.0°C (77°F) [RH = 63%]
Pressure (altimeter): 29.76 inches Hg (1008.0 mb)
Winds: from the S (180 degrees) at 9 MPH (8 knots; 4.1 m/s)
Visibility: 6 or more miles (10+ km)
Ceiling: at least 12,000 feet AGL
Clouds: sky clear below 12,000 feet AGL
Weather: no significant weather observed at this time

METAR text: YBRM 190238Z AUTO 18011KT 9999 // SCT019 33/26 Q1009 RF00/0/000/0
Conditions at: YBRM (BROOME AIRPORT , AU) observed 0238 UTC 19 January 2019
Temperature: 33.0°C (91°F)
Dewpoint: 26.0°C (79°F) [RH = 67%]
Pressure (altimeter): 29.79 inches Hg (1009.0 mb)
Winds: from the S (180 degrees) at 13 MPH (11 knots; 5.7 m/s)
Visibility: 6 or more miles (10+ km)
Ceiling: at least 12,000 feet AGL
Clouds: scattered clouds at 1900 feet AGL
Weather: no significant weather observed at this time

METAR text: YBRM 190230Z AUTO 19010KT 8000 // BKN017 BKN024 33/27 Q1009
Conditions at: YBRM (BROOME AIRPORT , AU) observed 0230 UTC 19 January 2019
Temperature: 33.0°C (91°F)
Dewpoint: 27.0°C (81°F) [RH = 71%]
Pressure (altimeter): 29.79 inches Hg (1009.0 mb)
Winds: from the S (190 degrees) at 12 MPH (10 knots; 5.1 m/s)
Visibility: 5 miles ( 8 km)
Ceiling: 1700 feet AGL
Clouds: broken clouds at 1700 feet AGL
broken clouds at 2400 feet AGL
Weather: no significant weather observed at this time

METAR text: YBRM 190220Z AUTO 18010KT 6000 // BKN017 BKN023 BKN026 33/27 Q1009
Conditions at: YBRM (BROOME AIRPORT , AU) observed 0220 UTC 19 January 2019
Temperature: 33.0°C (91°F)
Dewpoint: 27.0°C (81°F) [RH = 71%]
Pressure (altimeter): 29.79 inches Hg (1009.0 mb)
Winds: from the S (180 degrees) at 12 MPH (10 knots; 5.1 m/s)
Visibility: 4 miles ( 6 km)
Ceiling: 1700 feet AGL
Clouds: broken clouds at 1700 feet AGL
broken clouds at 2300 feet AGL
broken clouds at 2600 feet AGL
Weather: no significant weather observed at this time

METAR text: YBRM 190200Z AUTO 19009KT 9999 // BKN019 33/27 Q1009
Conditions at: YBRM (BROOME AIRPORT , AU) observed 0200 UTC 19 January 2019
Temperature: 33.0°C (91°F)
Dewpoint: 27.0°C (81°F) [RH = 71%]
Pressure (altimeter): 29.79 inches Hg (1009.0 mb)
Winds: from the S (190 degrees) at 10 MPH (9 knots; 4.6 m/s)
Visibility: 6 or more miles (10+ km)
Ceiling: 1900 feet AGL
Clouds: broken clouds at 1900 feet AGL
Weather: no significant weather observed at this time

METAR text: YBRM 190130Z AUTO 17008KT 9999 // SCT014 32/27 Q1009 RF00.0/000.0
Conditions at: YBRM (BROOME AIRPORT , AU) observed 0130 UTC 19 January 2019
Temperature: 32.0°C (90°F)
Dewpoint: 27.0°C (81°F) [RH = 75%]
Pressure (altimeter): 29.79 inches Hg (1009.0 mb)
Winds: from the S (170 degrees) at 9 MPH (8 knots; 4.1 m/s)
Visibility: 6 or more miles (10+ km)
Ceiling: at least 12,000 feet AGL
Clouds: scattered clouds at 1400 feet AGL
Weather: no significant weather observed at this time

METAR text: YBRM 190100Z AUTO 21007KT 9999 // SCT019 BKN028 32/27 Q1009
Conditions at: YBRM (BROOME AIRPORT , AU) observed 0100 UTC 19 January 2019
Temperature: 32.0°C (90°F)
Dewpoint: 27.0°C (81°F) [RH = 75%]
Pressure (altimeter): 29.79 inches Hg (1009.0 mb)
Winds: from the SSW (210 degrees) at 8 MPH (7 knots; 3.6 m/s)
Visibility: 6 or more miles (10+ km)
Ceiling: 2800 feet AGL
Clouds: scattered clouds at 1900 feet AGL
broken clouds at 2800 feet AGL
Weather: no significant weather observed at this time

METAR text: YBRM 190030Z AUTO 23008KT 9999 // SCT017 BKN022 BKN030 32/26 Q1009
Conditions at: YBRM (BROOME AIRPORT , AU) observed 0030 UTC 19 January 2019
Temperature: 32.0°C (90°F)
Dewpoint: 26.0°C (79°F) [RH = 71%]
Pressure (altimeter): 29.79 inches Hg (1009.0 mb)
Winds: from the SW (230 degrees) at 9 MPH (8 knots; 4.1 m/s)
Visibility: 6 or more miles (10+ km)
Ceiling: 2200 feet AGL
Clouds: scattered clouds at 1700 feet AGL
broken clouds at 2200 feet AGL
broken clouds at 3000 feet AGL
Weather: no significant weather observed at this time

METAR text: YBRM 190000Z AUTO 24008KT 9999 // SCT015 31/27 Q1009 RF00.0/000.0
Conditions at: YBRM (BROOME AIRPORT , AU) observed 0000 UTC 19 January 2019
Temperature: 31.0°C (88°F)
Dewpoint: 27.0°C (81°F) [RH = 79%]
Pressure (altimeter): 29.79 inches Hg (1009.0 mb)
Winds: from the WSW (240 degrees) at 9 MPH (8 knots; 4.1 m/s)
Visibility: 6 or more miles (10+ km)
Ceiling: at least 12,000 feet AGL
Clouds: scattered clouds at 1500 feet AGL
Weather: no significant weather observed at this time

METAR text: YBRM 182330Z AUTO 26007KT 9999 // SCT013 31/27 Q1008 RF00.0/000.0
Conditions at: YBRM (BROOME AIRPORT , AU) observed 2330 UTC 18 January 2019
Temperature: 31.0°C (88°F)
Dewpoint: 27.0°C (81°F) [RH = 79%]
Pressure (altimeter): 29.76 inches Hg (1008.0 mb)
Winds: from the W (260 degrees) at 8 MPH (7 knots; 3.6 m/s)
Visibility: 6 or more miles (10+ km)
Ceiling: at least 12,000 feet AGL
Clouds: scattered clouds at 1300 feet AGL
Weather: no significant weather observed at this time

METAR text: YBRM 182300Z AUTO 28007KT 9999 // NCD 31/27 Q1008 RF00.0/000.0
Conditions at: YBRM (BROOME AIRPORT , AU) observed 2300 UTC 18 January 2019
Temperature: 31.0°C (88°F)
Dewpoint: 27.0°C (81°F) [RH = 79%]
Pressure (altimeter): 29.76 inches Hg (1008.0 mb)
Winds: from the W (280 degrees) at 8 MPH (7 knots; 3.6 m/s)
Visibility: 6 or more miles (10+ km)
Ceiling: at least 12,000 feet AGL
Clouds: sky clear below 12,000 feet AGL
Weather: no significant weather observed at this time

METAR text: YBRM 182230Z AUTO 29005KT 9999 // NCD 30/27 Q1008 RF00.0/000.0
Conditions at: YBRM (BROOME AIRPORT , AU) observed 2230 UTC 18 January 2019
Temperature: 30.0°C (86°F)
Dewpoint: 27.0°C (81°F) [RH = 84%]
Pressure (altimeter): 29.76 inches Hg (1008.0 mb)
Winds: from the WNW (290 degrees) at 6 MPH (5 knots; 2.6 m/s)
Visibility: 6 or more miles (10+ km)
Ceiling: at least 12,000 feet AGL
Clouds: sky clear below 12,000 feet AGL
Weather: no significant weather observed at this time

METAR text: YBRM 182200Z AUTO 28005KT 9999 // NCD 29/27 Q1007
Conditions at: YBRM (BROOME AIRPORT , AU) observed 2200 UTC 18 January 2019
Temperature: 29.0°C (84°F)
Dewpoint: 27.0°C (81°F) [RH = 89%]
Pressure (altimeter): 29.73 inches Hg (1007.0 mb)
Winds: from the W (280 degrees) at 6 MPH (5 knots; 2.6 m/s)
Visibility: 6 or more miles (10+ km)
Ceiling: at least 12,000 feet AGL
Clouds: sky clear below 12,000 feet AGL
Weather: no significant weather observed at this time

METAR text: YBRM 182130Z AUTO 28004KT 9999 // NCD 29/27 Q1007 RF00.0/000.0
Conditions at: YBRM (BROOME AIRPORT , AU) observed 2130 UTC 18 January 2019
Temperature: 29.0°C (84°F)
Dewpoint: 27.0°C (81°F) [RH = 89%]
Pressure (altimeter): 29.73 inches Hg (1007.0 mb)
Winds: from the W (280 degrees) at 5 MPH (4 knots; 2.1 m/s)
Visibility: 6 or more miles (10+ km)
Ceiling: at least 12,000 feet AGL
Clouds: sky clear below 12,000 feet AGL
Weather: no significant weather observed at this time

METAR text: YBRM 182100Z AUTO 25005KT 9999 // NCD 29/26 Q1006
Conditions at: YBRM (BROOME AIRPORT , AU) observed 2100 UTC 18 January 2019
Temperature: 29.0°C (84°F)
Dewpoint: 26.0°C (79°F) [RH = 84%]
Pressure (altimeter): 29.70 inches Hg (1006.0 mb)
Winds: from the WSW (250 degrees) at 6 MPH (5 knots; 2.6 m/s)
Visibility: 6 or more miles (10+ km)
Ceiling: at least 12,000 feet AGL
Clouds: sky clear below 12,000 feet AGL
Weather: no significant weather observed at this time

METAR text: YBRM 182030Z AUTO 00000KT 9999 // NCD 29/26 Q1006 RF00.0/000.0
Conditions at: YBRM (BROOME AIRPORT , AU) observed 2030 UTC 18 January 2019
Temperature: 29.0°C (84°F)
Dewpoint: 26.0°C (79°F) [RH = 84%]
Pressure (altimeter): 29.70 inches Hg (1006.0 mb)
Winds: calm
Visibility: 6 or more miles (10+ km)
Ceiling: at least 12,000 feet AGL
Clouds: sky clear below 12,000 feet AGL
Weather: no significant weather observed at this time

METAR text: YBRM 182000Z AUTO 00000KT 9999 // NCD 28/27 Q1006 RF00.0/000.0
Conditions at: YBRM (BROOME AIRPORT , AU) observed 2000 UTC 18 January 2019
Temperature: 28.0°C (82°F)
Dewpoint: 27.0°C (81°F) [RH = 94%]
Pressure (altimeter): 29.70 inches Hg (1006.0 mb)
Winds: calm
Visibility: 6 or more miles (10+ km)
Ceiling: at least 12,000 feet AGL
Clouds: sky clear below 12,000 feet AGL
Weather: no significant weather observed at this time

METAR text: YBRM 181930Z AUTO 30001KT 9999 // NCD 29/26 Q1006 RF00.0/000.0
Conditions at: YBRM (BROOME AIRPORT , AU) observed 1930 UTC 18 January 2019
Temperature: 29.0°C (84°F)
Dewpoint: 26.0°C (79°F) [RH = 84%]
Pressure (altimeter): 29.70 inches Hg (1006.0 mb)
Winds: from the WNW (300 degrees) at 1 MPH (1 knots; 0.5 m/s)
Visibility: 6 or more miles (10+ km)
Ceiling: at least 12,000 feet AGL
Clouds: sky clear below 12,000 feet AGL
Weather: no significant weather observed at this time

METAR text: YBRM 181900Z AUTO 27004KT 9999 // NCD 30/26 Q1007 RF00.0/000.0
Conditions at: YBRM (BROOME AIRPORT , AU) observed 1900 UTC 18 January 2019
Temperature: 30.0°C (86°F)
Dewpoint: 26.0°C (79°F) [RH = 79%]
Pressure (altimeter): 29.73 inches Hg (1007.0 mb)
Winds: from the W (270 degrees) at 5 MPH (4 knots; 2.1 m/s)
Visibility: 6 or more miles (10+ km)
Ceiling: at least 12,000 feet AGL
Clouds: sky clear below 12,000 feet AGL
Weather: no significant weather observed at this time

METAR text: YBRM 181830Z AUTO 28003KT 9999 // NCD 29/27 Q1006 RF00.0/000.0
Conditions at: YBRM (BROOME AIRPORT , AU) observed 1830 UTC 18 January 2019
Temperature: 29.0°C (84°F)
Dewpoint: 27.0°C (81°F) [RH = 89%]
Pressure (altimeter): 29.70 inches Hg (1006.0 mb)
Winds: from the W (280 degrees) at 3 MPH (3 knots; 1.5 m/s)
Visibility: 6 or more miles (10+ km)
Ceiling: at least 12,000 feet AGL
Clouds: sky clear below 12,000 feet AGL
Weather: no significant weather observed at this time

METAR text: YBRM 181800Z AUTO 27004KT 9999 // NCD 30/27 Q1006 RF00.0/000.0
Conditions at: YBRM (BROOME AIRPORT , AU) observed 1800 UTC 18 January 2019
Temperature: 30.0°C (86°F)
Dewpoint: 27.0°C (81°F) [RH = 84%]
Pressure (altimeter): 29.70 inches Hg (1006.0 mb)
Winds: from the W (270 degrees) at 5 MPH (4 knots; 2.1 m/s)
Visibility: 6 or more miles (10+ km)
Ceiling: at least 12,000 feet AGL
Clouds: sky clear below 12,000 feet AGL
Weather: no significant weather observed at this time

METAR text: YBRM 181730Z AUTO 29005KT 9999 // NCD 30/27 Q1006 RF00.0/000.0
Conditions at: YBRM (BROOME AIRPORT , AU) observed 1730 UTC 18 January 2019
Temperature: 30.0°C (86°F)
Dewpoint: 27.0°C (81°F) [RH = 84%]
Pressure (altimeter): 29.70 inches Hg (1006.0 mb)
Winds: from the WNW (290 degrees) at 6 MPH (5 knots; 2.6 m/s)
Visibility: 6 or more miles (10+ km)
Ceiling: at least 12,000 feet AGL
Clouds: sky clear below 12,000 feet AGL
Weather: no significant weather observed at this time

METAR text: YBRM 181700Z AUTO 28006KT 9999 // NCD 30/27 Q1006
Conditions at: YBRM (BROOME AIRPORT , AU) observed 1700 UTC 18 January 2019
Temperature: 30.0°C (86°F)
Dewpoint: 27.0°C (81°F) [RH = 84%]
Pressure (altimeter): 29.70 inches Hg (1006.0 mb)
Winds: from the W (280 degrees) at 7 MPH (6 knots; 3.1 m/s)
Visibility: 6 or more miles (10+ km)
Ceiling: at least 12,000 feet AGL
Clouds: sky clear below 12,000 feet AGL
Weather: no significant weather observed at this time

METAR text: YBRM 181630Z AUTO 29007KT 9999 // NCD 30/27 Q1007 RF00.0/000.0
Conditions at: YBRM (BROOME AIRPORT , AU) observed 1630 UTC 18 January 2019
Temperature: 30.0°C (86°F)
Dewpoint: 27.0°C (81°F) [RH = 84%]
Pressure (altimeter): 29.73 inches Hg (1007.0 mb)
Winds: from the WNW (290 degrees) at 8 MPH (7 knots; 3.6 m/s)
Visibility: 6 or more miles (10+ km)
Ceiling: at least 12,000 feet AGL
Clouds: sky clear below 12,000 feet AGL
Weather: no significant weather observed at this time

METAR text: YBRM 181600Z AUTO 29006KT 9999 // NCD 30/27 Q1007 RF00.0/000.0
Conditions at: YBRM (BROOME AIRPORT , AU) observed 1600 UTC 18 January 2019
Temperature: 30.0°C (86°F)
Dewpoint: 27.0°C (81°F) [RH = 84%]
Pressure (altimeter): 29.73 inches Hg (1007.0 mb)
Winds: from the WNW (290 degrees) at 7 MPH (6 knots; 3.1 m/s)
Visibility: 6 or more miles (10+ km)
Ceiling: at least 12,000 feet AGL
Clouds: sky clear below 12,000 feet AGL
Weather: no significant weather observed at this time

METAR text: YBRM 181530Z AUTO 30005KT 9999 // NCD 30/27 Q1007 RF00.0/000.0
Conditions at: YBRM (BROOME AIRPORT , AU) observed 1530 UTC 18 January 2019
Temperature: 30.0°C (86°F)
Dewpoint: 27.0°C (81°F) [RH = 84%]
Pressure (altimeter): 29.73 inches Hg (1007.0 mb)
Winds: from the WNW (300 degrees) at 6 MPH (5 knots; 2.6 m/s)
Visibility: 6 or more miles (10+ km)
Ceiling: at least 12,000 feet AGL
Clouds: sky clear below 12,000 feet AGL
Weather: no significant weather observed at this time

METAR text: YBRM 181500Z AUTO 31006KT 9999 // SCT013 30/27 Q1007
Conditions at: YBRM (BROOME AIRPORT , AU) observed 1500 UTC 18 January 2019
Temperature: 30.0°C (86°F)
Dewpoint: 27.0°C (81°F) [RH = 84%]
Pressure (altimeter): 29.73 inches Hg (1007.0 mb)
Winds: from the NW (310 degrees) at 7 MPH (6 knots; 3.1 m/s)
Visibility: 6 or more miles (10+ km)
Ceiling: at least 12,000 feet AGL
Clouds: scattered clouds at 1300 feet AGL
Weather: no significant weather observed at this time

METAR text: YBRM 181430Z AUTO 31005KT 9999 // NCD 30/27 Q1008 RF00.0/000.0
Conditions at: YBRM (BROOME AIRPORT , AU) observed 1430 UTC 18 January 2019
Temperature: 30.0°C (86°F)
Dewpoint: 27.0°C (81°F) [RH = 84%]
Pressure (altimeter): 29.76 inches Hg (1008.0 mb)
Winds: from the NW (310 degrees) at 6 MPH (5 knots; 2.6 m/s)
Visibility: 6 or more miles (10+ km)
Ceiling: at least 12,000 feet AGL
Clouds: sky clear below 12,000 feet AGL
Weather: no significant weather observed at this time

METAR text: YBRM 181400Z AUTO 31009KT 9999 // NCD 30/27 Q1008 RF00.0/000.0
Conditions at: YBRM (BROOME AIRPORT , AU) observed 1400 UTC 18 January 2019
Temperature: 30.0°C (86°F)
Dewpoint: 27.0°C (81°F) [RH = 84%]
Pressure (altimeter): 29.76 inches Hg (1008.0 mb)
Winds: from the NW (310 degrees) at 10 MPH (9 knots; 4.6 m/s)
Visibility: 6 or more miles (10+ km)
Ceiling: at least 12,000 feet AGL
Clouds: sky clear below 12,000 feet AGL
Weather: no significant weather observed at this time

METAR text: YBRM 181330Z AUTO 31004KT 9999 // NCD 31/27 Q1007 RF00.0/000.0
Conditions at: YBRM (BROOME AIRPORT , AU) observed 1330 UTC 18 January 2019
Temperature: 31.0°C (88°F)
Dewpoint: 27.0°C (81°F) [RH = 79%]
Pressure (altimeter): 29.73 inches Hg (1007.0 mb)
Winds: from the NW (310 degrees) at 5 MPH (4 knots; 2.1 m/s)
Visibility: 6 or more miles (10+ km)
Ceiling: at least 12,000 feet AGL
Clouds: sky clear below 12,000 feet AGL
Weather: no significant weather observed at this time

METAR text: YBRM 181300Z AUTO 34004KT 9999 // NCD 31/26 Q1007
Conditions at: YBRM (BROOME AIRPORT , AU) observed 1300 UTC 18 January 2019
Temperature: 31.0°C (88°F)
Dewpoint: 26.0°C (79°F) [RH = 75%]
Pressure (altimeter): 29.73 inches Hg (1007.0 mb)
Winds: from the NNW (340 degrees) at 5 MPH (4 knots; 2.1 m/s)
Visibility: 6 or more miles (10+ km)
Ceiling: at least 12,000 feet AGL
Clouds: sky clear below 12,000 feet AGL
Weather: no significant weather observed at this time

METAR text: YBRM 181230Z AUTO 36001KT 9999 // NCD 31/26 Q1006 RF00.0/000.0
Conditions at: YBRM (BROOME AIRPORT , AU) observed 1230 UTC 18 January 2019
Temperature: 31.0°C (88°F)
Dewpoint: 26.0°C (79°F) [RH = 75%]
Pressure (altimeter): 29.70 inches Hg (1006.0 mb)
Winds: from the N (360 degrees) at 1 MPH (1 knots; 0.5 m/s)
Visibility: 6 or more miles (10+ km)
Ceiling: at least 12,000 feet AGL
Clouds: sky clear below 12,000 feet AGL
Weather: no significant weather observed at this time

METAR text: YBRM 181200Z AUTO 35002KT 9999 // NCD 31/26 Q1006
Conditions at: YBRM (BROOME AIRPORT , AU) observed 1200 UTC 18 January 2019
Temperature: 31.0°C (88°F)
Dewpoint: 26.0°C (79°F) [RH = 75%]
Pressure (altimeter): 29.70 inches Hg (1006.0 mb)
Winds: from the N (350 degrees) at 2 MPH (2 knots; 1.0 m/s)
Visibility: 6 or more miles (10+ km)
Ceiling: at least 12,000 feet AGL
Clouds: sky clear below 12,000 feet AGL
Weather: no significant weather observed at this time

METAR text: YBRM 181130Z AUTO 22006KT 9999 // NCD 32/26 Q1006 RF00.0/000.0
Conditions at: YBRM (BROOME AIRPORT , AU) observed 1130 UTC 18 January 2019
Temperature: 32.0°C (90°F)
Dewpoint: 26.0°C (79°F) [RH = 71%]
Pressure (altimeter): 29.70 inches Hg (1006.0 mb)
Winds: from the SW (220 degrees) at 7 MPH (6 knots; 3.1 m/s)
Visibility: 6 or more miles (10+ km)
Ceiling: at least 12,000 feet AGL
Clouds: sky clear below 12,000 feet AGL
Weather: no significant weather observed at this time

METAR text: YBRM 181100Z AUTO 22005KT 180V240 9999 // NCD 32/25 Q1005
Conditions at: YBRM (BROOME AIRPORT , AU) observed 1100 UTC 18 January 2019
Temperature: 32.0°C (90°F)
Dewpoint: 25.0°C (77°F) [RH = 67%]
Pressure (altimeter): 29.68 inches Hg (1005.0 mb)
Winds: from the SW (220 degrees) at 6 MPH (5 knots; 2.6 m/s)
Visibility: 6 or more miles (10+ km)
Ceiling: at least 12,000 feet AGL
Clouds: sky clear below 12,000 feet AGL
Weather: no significant weather observed at this time

METAR text: YBRM 181030Z AUTO 19003KT 9999 // NCD 34/22 Q1005 RF00.0/000.0
Conditions at: YBRM (BROOME AIRPORT , AU) observed 1030 UTC 18 January 2019
Temperature: 34.0°C (93°F)
Dewpoint: 22.0°C (72°F) [RH = 50%]
Pressure (altimeter): 29.68 inches Hg (1005.0 mb)
Winds: from the S (190 degrees) at 3 MPH (3 knots; 1.5 m/s)
Visibility: 6 or more miles (10+ km)
Ceiling: at least 12,000 feet AGL
Clouds: sky clear below 12,000 feet AGL
Weather: no significant weather observed at this time

METAR text: YBRM 181000Z AUTO 17004KT 9999 // NCD 34/24 Q1004
Conditions at: YBRM (BROOME AIRPORT , AU) observed 1000 UTC 18 January 2019
Temperature: 34.0°C (93°F)
Dewpoint: 24.0°C (75°F) [RH = 56%]
Pressure (altimeter): 29.65 inches Hg (1004.0 mb)
Winds: from the S (170 degrees) at 5 MPH (4 knots; 2.1 m/s)
Visibility: 6 or more miles (10+ km)
Ceiling: at least 12,000 feet AGL
Clouds: sky clear below 12,000 feet AGL
Weather: no significant weather observed at this time

METAR text: YBRM 180930Z AUTO 14005KT 9999 // NCD 34/22 Q1004 RF00.0/000.0
Conditions at: YBRM (BROOME AIRPORT , AU) observed 0930 UTC 18 January 2019
Temperature: 34.0°C (93°F)
Dewpoint: 22.0°C (72°F) [RH = 50%]
Pressure (altimeter): 29.65 inches Hg (1004.0 mb)
Winds: from the SE (140 degrees) at 6 MPH (5 knots; 2.6 m/s)
Visibility: 6 or more miles (10+ km)
Ceiling: at least 12,000 feet AGL
Clouds: sky clear below 12,000 feet AGL
Weather: no significant weather observed at this time

METAR text: YBRM 180900Z AUTO 09005KT 9999 // NCD 34/22 Q1004
Conditions at: YBRM (BROOME AIRPORT , AU) observed 0900 UTC 18 January 2019
Temperature: 34.0°C (93°F)
Dewpoint: 22.0°C (72°F) [RH = 50%]
Pressure (altimeter): 29.65 inches Hg (1004.0 mb)
Winds: from the E (90 degrees) at 6 MPH (5 knots; 2.6 m/s)
Visibility: 6 or more miles (10+ km)
Ceiling: at least 12,000 feet AGL
Clouds: sky clear below 12,000 feet AGL
Weather: no significant weather observed at this time

METAR text: YBRM 180830Z AUTO 10008KT 9999 // NCD 35/21 Q1003 RF00.0/000.0
Conditions at: YBRM (BROOME AIRPORT , AU) observed 0830 UTC 18 January 2019
Temperature: 35.0°C (95°F)
Dewpoint: 21.0°C (70°F) [RH = 44%]
Pressure (altimeter): 29.62 inches Hg (1003.0 mb)
Winds: from the E (100 degrees) at 9 MPH (8 knots; 4.1 m/s)
Visibility: 6 or more miles (10+ km)
Ceiling: at least 12,000 feet AGL
Clouds: sky clear below 12,000 feet AGL
Weather: no significant weather observed at this time

METAR text: YBRM 180800Z AUTO 11006KT 9999 // NCD 35/21 Q1003
Conditions at: YBRM (BROOME AIRPORT , AU) observed 0800 UTC 18 January 2019
Temperature: 35.0°C (95°F)
Dewpoint: 21.0°C (70°F) [RH = 44%]
Pressure (altimeter): 29.62 inches Hg (1003.0 mb)
Winds: from the ESE (110 degrees) at 7 MPH (6 knots; 3.1 m/s)
Visibility: 6 or more miles (10+ km)
Ceiling: at least 12,000 feet AGL
Clouds: sky clear below 12,000 feet AGL
Weather: no significant weather observed at this time

METAR text: YBRM 180730Z 05006KT 9999 FEW038 BKN120 35/23 Q1003 RF00.0/000.0
Conditions at: YBRM (BROOME AIRPORT , AU) observed 0730 UTC 18 January 2019
Temperature: 35.0°C (95°F)
Dewpoint: 23.0°C (73°F) [RH = 50%]
Pressure (altimeter): 29.62 inches Hg (1003.0 mb)
Winds: from the NE (50 degrees) at 7 MPH (6 knots; 3.1 m/s)
Visibility: 6 or more miles (10+ km)
Ceiling: 12000 feet AGL
Clouds: few clouds at 3800 feet AGL
broken clouds at 12000 feet AGL
Weather: no significant weather observed at this time

METAR text: YBRM 180700Z 05008KT 9999 FEW035 BKN170 35/23 Q1004 RF00.0/000.0
Conditions at: YBRM (BROOME AIRPORT , AU) observed 0700 UTC 18 January 2019
Temperature: 35.0°C (95°F)
Dewpoint: 23.0°C (73°F) [RH = 50%]
Pressure (altimeter): 29.65 inches Hg (1004.0 mb)
Winds: from the NE (50 degrees) at 9 MPH (8 knots; 4.1 m/s)
Visibility: 6 or more miles (10+ km)
Ceiling: 17000 feet AGL
Clouds: few clouds at 3500 feet AGL
broken clouds at 17000 feet AGL
Weather: no significant weather observed at this time

METAR text: YBRM 180630Z 06007KT 9999 FEW035 BKN170 35/23 Q1004 RF00.0/000.0
Conditions at: YBRM (BROOME AIRPORT , AU) observed 0630 UTC 18 January 2019
Temperature: 35.0°C (95°F)
Dewpoint: 23.0°C (73°F) [RH = 50%]
Pressure (altimeter): 29.65 inches Hg (1004.0 mb)
Winds: from the ENE (60 degrees) at 8 MPH (7 knots; 3.6 m/s)
Visibility: 6 or more miles (10+ km)
Ceiling: 17000 feet AGL
Clouds: few clouds at 3500 feet AGL
broken clouds at 17000 feet AGL
Weather: no significant weather observed at this time

METAR text: YBRM 180600Z 05007KT 030V090 9999 FEW034 BKN170 34/23 Q1004
Conditions at: YBRM (BROOME AIRPORT , AU) observed 0600 UTC 18 January 2019
Temperature: 34.0°C (93°F)
Dewpoint: 23.0°C (73°F) [RH = 53%]
Pressure (altimeter): 29.65 inches Hg (1004.0 mb)
Winds: from the NE (50 degrees) at 8 MPH (7 knots; 3.6 m/s)
Visibility: 6 or more miles (10+ km)
Ceiling: 17000 feet AGL
Clouds: few clouds at 3400 feet AGL
broken clouds at 17000 feet AGL
Weather: no significant weather observed at this time

METAR text: YBRM 180530Z 07008KT 9999 FEW033 SCT170 BKN280 33/23 Q1005 RF00.0/000.0
Conditions at: YBRM (BROOME AIRPORT , AU) observed 0530 UTC 18 January 2019
Temperature: 33.0°C (91°F)
Dewpoint: 23.0°C (73°F) [RH = 56%]
Pressure (altimeter): 29.68 inches Hg (1005.0 mb)
Winds: from the ENE (70 degrees) at 9 MPH (8 knots; 4.1 m/s)
Visibility: 6 or more miles (10+ km)
Ceiling: 28000 feet AGL
Clouds: few clouds at 3300 feet AGL
scattered clouds at 17000 feet AGL
broken clouds at 28000 feet AGL
Weather: no significant weather observed at this time

METAR text: YBRM 180500Z 10012KT 9999 FEW033 SCT120 BKN280 33/22 Q1006 RF00.0/000.0
Conditions at: YBRM (BROOME AIRPORT , AU) observed 0500 UTC 18 January 2019
Temperature: 33.0°C (91°F)
Dewpoint: 22.0°C (72°F) [RH = 53%]
Pressure (altimeter): 29.70 inches Hg (1006.0 mb)
Winds: from the E (100 degrees) at 14 MPH (12 knots; 6.2 m/s)
Visibility: 6 or more miles (10+ km)
Ceiling: 28000 feet AGL
Clouds: few clouds at 3300 feet AGL
scattered clouds at 12000 feet AGL
broken clouds at 28000 feet AGL
Weather: no significant weather observed at this time

METAR text: YBRM 180430Z 13013KT 9999 FEW030 SCT120 BKN280 33/23 Q1006 RF00.0/000.0
Conditions at: YBRM (BROOME AIRPORT , AU) observed 0430 UTC 18 January 2019
Temperature: 33.0°C (91°F)
Dewpoint: 23.0°C (73°F) [RH = 56%]
Pressure (altimeter): 29.70 inches Hg (1006.0 mb)
Winds: from the SE (130 degrees) at 15 MPH (13 knots; 6.7 m/s)
Visibility: 6 or more miles (10+ km)
Ceiling: 28000 feet AGL
Clouds: few clouds at 3000 feet AGL
scattered clouds at 12000 feet AGL
broken clouds at 28000 feet AGL
Weather: no significant weather observed at this time

METAR text: YBRM 180400Z 13014KT 9999 FEW030 SCT120 BKN280 33/23 Q1007 RF00.0/000.0
Conditions at: YBRM (BROOME AIRPORT , AU) observed 0400 UTC 18 January 2019
Temperature: 33.0°C (91°F)
Dewpoint: 23.0°C (73°F) [RH = 56%]
Pressure (altimeter): 29.73 inches Hg (1007.0 mb)
Winds: from the SE (130 degrees) at 16 MPH (14 knots; 7.2 m/s)
Visibility: 6 or more miles (10+ km)
Ceiling: 28000 feet AGL
Clouds: few clouds at 3000 feet AGL
scattered clouds at 12000 feet AGL
broken clouds at 28000 feet AGL
Weather: no significant weather observed at this time

METAR text: YBRM 180330Z 12014KT 9999 FEW030 SCT120 BKN280 32/23 Q1007 RF00.0/000.0
Conditions at: YBRM (BROOME AIRPORT , AU) observed 0330 UTC 18 January 2019
Temperature: 32.0°C (90°F)
Dewpoint: 23.0°C (73°F) [RH = 59%]
Pressure (altimeter): 29.73 inches Hg (1007.0 mb)
Winds: from the ESE (120 degrees) at 16 MPH (14 knots; 7.2 m/s)
Visibility: 6 or more miles (10+ km)
Ceiling: 28000 feet AGL
Clouds: few clouds at 3000 feet AGL
scattered clouds at 12000 feet AGL
broken clouds at 28000 feet AGL
Weather: no significant weather observed at this time

METAR text: YBRM 180300Z 12012KT 9999 FEW020 SCT120 BKN280 31/24 Q1008 RF00.0/000.0
Conditions at: YBRM (BROOME AIRPORT , AU) observed 0300 UTC 18 January 2019
Temperature: 31.0°C (88°F)
Dewpoint: 24.0°C (75°F) [RH = 66%]
Pressure (altimeter): 29.76 inches Hg (1008.0 mb)
Winds: from the ESE (120 degrees) at 14 MPH (12 knots; 6.2 m/s)
Visibility: 6 or more miles (10+ km)
Ceiling: 28000 feet AGL
Clouds: few clouds at 2000 feet AGL
scattered clouds at 12000 feet AGL
broken clouds at 28000 feet AGL
Weather: no significant weather observed at this time

Forecast for: YBRM (BROOME AIRPORT , AU)
Text: TAF YBRM 191059Z 1912/2012 27013KT CAVOK
Forecast period: 1200 to 1500 UTC 19 January 2019
Forecast type: FROM: standard forecast or significant change
Winds: from the W (270 degrees) at 15 MPH (13 knots; 6.7 m/s)
Visibility: 6 or more miles 10+ km)
Ceiling: unknown
Clouds: missing
Weather: NSW  (no significant weather)
Text: FM191500 24005KT 9999 SCT014
Forecast period: 1500 to 2300 UTC 19 January 2019
Forecast type: FROM: standard forecast or significant change
Winds: from the WSW (240 degrees) at 6 MPH (5 knots; 2.6 m/s)
Visibility: 6 or more miles 10+ km)
Ceiling: at least 12,000 feet AGL
Clouds: scattered clouds at 1400 feet AGL
Weather: no significant weather forecast for this period
Text: FM192300 21007KT CAVOK
Forecast period: 2300 UTC 19 January 2019 to 0400 UTC 20 January 2019
Forecast type: FROM: standard forecast or significant change
Winds: from the SSW (210 degrees) at 8 MPH (7 knots; 3.6 m/s)
Visibility: 6 or more miles 10+ km)
Ceiling: unknown
Clouds: missing
Weather: NSW  (no significant weather)
Text: FM200400 27010KT CAVOK
Forecast period: 0400 to 1200 UTC 20 January 2019
Forecast type: FROM: standard forecast or significant change
Winds: from the W (270 degrees) at 12 MPH (10 knots; 5.1 m/s)
Visibility: 6 or more miles 10+ km)
Ceiling: unknown
Clouds: missing
Weather: NSW  (no significant weather)
Text: PROB30 INTER 1912/1916 VRB25G45KT 2000 TSRA BKN015 FEW060CB
Forecast period: 1200 to 1600 UTC 19 January 2019
Forecast type: TEMPORARY: The following changes expected for less than half the time period
Winds: variable direction winds at 29 MPH (25 knots; 12.9 m/s)
gusting to 52 MPH (45 knots; 23.1 m/s)
Visibility: 1.24 miles (2.00 km)
Ceiling: 1500 feet AGL
Clouds: broken clouds at 1500 feet AGL
few clouds at 6000 feet AGL
Weather: TSRA  (rain associated with thunderstorm(s))
Text: PROB30 INTER 2005/2012 VRB25G45KT 2000 TSRA BKN015 FEW060CB
Forecast period: 0500 to 1200 UTC 20 January 2019
Forecast type: TEMPORARY: The following changes expected for less than half the time period
Winds: variable direction winds at 29 MPH (25 knots; 12.9 m/s)
gusting to 52 MPH (45 knots; 23.1 m/s)
Visibility: 1.24 miles (2.00 km)
Ceiling: 1500 feet AGL
Clouds: broken clouds at 1500 feet AGL
few clouds at 6000 feet AGL
Weather: TSRA  (rain associated with thunderstorm(s))